Lilydale, Minnesota
Current Conditions -  °F | °C
As of 7:53 AM on Wednesday 28 Jan 2015 (Local Time) from KSTP Reporting Station
Overcast Overcast  
Wind Chill: 17°   Ceiling: 900
Heat Index: 28°   Visibility: 7mi
Dew Point: 25°   Wind: 14mph
Humidity: 88%   Direction: 160°SSE
Pressure: 30.02"   Gusts: NA
Location:  44.8976°N, 93.103°W
Report Text: KSTP 281353Z 16012KT 7SM OVC009 M02/M04 A3002 RMK AO2 SLP174 T10221039
Loading
Personal Weather Stations






























Interactive Weather Map New forecast layout! Learn more

10-Day Weather Forecast

Advertisements
Track Severe Weather on mobile